CYLT

Alert Airport

Alert, Canada
METAR CYLT 200600Z 33004KT 15SM SCT210 M31/M35 A2971 RMK CI2 FST OBS SLP068
Observed Flight Rules
Feb-20 @ 06:00 UTC (an hour ago) Visual Flight Rules
Wind Visibility Clouds
330° at 4 knots 15 miles
  • Scattered at 21,000' AGL
Temperatures Readings
Current -31°C / -24°F
Dewpoint -35°C / -31°F
Humidity 68%
Altimeter 29.71" Hg
Pressure 1006.8 hPa
Elevation 31
METAR CYLT 200600Z 33004KT 15SM SCT210 M31/M35 A2971 RMK CI2 FST OBS SLP068
Observed Flight Rules
Feb-20 @ 06:00 UTC
(an hour ago)
VFR
Wind Visibility
330° at 4 knots 15 miles
Clouds
  • Scattered at 21,000' AGL
Temperature Dewpoint
-31°C / -24°F -35°C / -31°F
Humidity Altimeter Pressure
68% 29.71" Hg 1006.8 hPa